Terminal Aerodrome Forecast
Issued by NWS

Home | Current Version | Previous Version | Text Only | Print | Product List | Glossary On
Versions: 1 2 3 4 5 6 7 8 9 10 11 12 13
445
FTUS43 KOAX 032320
TAFBFF
TAF
KBFF 032320Z 0400/0424 35012KT P6SM FEW090
     FM040200 34005KT P6SM SKC
     FM041700 17006KT P6SM SKC=

USA.gov is the U.S. government's official web portal to all federal, state and local government web resources and services.